sensor_id;sensor_type;location;lat;lon;timestamp;P1;durP1;ratioP1;P2;durP2;ratioP2
50769;SDS011;36740;48.698;11.472;2024-02-26T00:02:06;15.65;;;9.68;;
50769;SDS011;36740;48.698;11.472;2024-02-26T00:04:52;17.17;;;10.32;;
50769;SDS011;36740;48.698;11.472;2024-02-26T00:07:38;22.30;;;11.43;;
50769;SDS011;36740;48.698;11.472;2024-02-26T00:10:25;21.27;;;12.43;;
50769;SDS011;36740;48.698;11.472;2024-02-26T00:13:11;17.08;;;11.75;;
50769;SDS011;36740;48.698;11.472;2024-02-26T00:15:57;18.92;;;13.07;;
50769;SDS011;36740;48.698;11.472;2024-02-26T00:18:43;22.95;;;13.27;;
50769;SDS011;36740;48.698;11.472;2024-02-26T00:21:28;16.55;;;10.52;;
50769;SDS011;36740;48.698;11.472;2024-02-26T00:24:14;22.05;;;11.93;;
50769;SDS011;36740;48.698;11.472;2024-02-26T00:27:00;24.52;;;12.23;;
50769;SDS011;36740;48.698;11.472;2024-02-26T00:29:46;19.25;;;11.45;;
50769;SDS011;36740;48.698;11.472;2024-02-26T00:32:31;25.77;;;11.73;;
50769;SDS011;36740;48.698;11.472;2024-02-26T00:35:17;20.88;;;12.43;;
50769;SDS011;36740;48.698;11.472;2024-02-26T00:38:05;17.27;;;9.52;;
50769;SDS011;36740;48.698;11.472;2024-02-26T00:40:52;15.63;;;10.73;;
50769;SDS011;36740;48.698;11.472;2024-02-26T00:43:37;18.08;;;11.73;;
50769;SDS011;36740;48.698;11.472;2024-02-26T00:46:25;17.65;;;11.27;;
50769;SDS011;36740;48.698;11.472;2024-02-26T00:49:11;17.55;;;11.18;;
50769;SDS011;36740;48.698;11.472;2024-02-26T00:51:57;19.15;;;11.60;;
50769;SDS011;36740;48.698;11.472;2024-02-26T00:54:42;23.55;;;11.38;;
50769;SDS011;36740;48.698;11.472;2024-02-26T00:57:28;21.00;;;11.90;;
50769;SDS011;36740;48.698;11.472;2024-02-26T01:00:14;20.00;;;12.07;;
50769;SDS011;36740;48.698;11.472;2024-02-26T01:03:00;16.77;;;11.23;;
50769;SDS011;36740;48.698;11.472;2024-02-26T01:05:46;20.00;;;13.32;;
50769;SDS011;36740;48.698;11.472;2024-02-26T01:08:32;18.33;;;11.23;;
50769;SDS011;36740;48.698;11.472;2024-02-26T01:11:17;22.60;;;12.45;;
50769;SDS011;36740;48.698;11.472;2024-02-26T01:14:03;18.05;;;11.60;;
50769;SDS011;36740;48.698;11.472;2024-02-26T01:16:49;18.63;;;12.88;;
50769;SDS011;36740;48.698;11.472;2024-02-26T01:19:35;15.98;;;13.52;;
50769;SDS011;36740;48.698;11.472;2024-02-26T01:22:20;18.25;;;11.02;;
50769;SDS011;36740;48.698;11.472;2024-02-26T01:25:07;28.20;;;13.05;;
50769;SDS011;36740;48.698;11.472;2024-02-26T01:27:53;23.40;;;13.15;;
50769;SDS011;36740;48.698;11.472;2024-02-26T01:30:38;18.50;;;11.45;;
50769;SDS011;36740;48.698;11.472;2024-02-26T01:33:25;36.95;;;11.75;;
50769;SDS011;36740;48.698;11.472;2024-02-26T01:36:11;19.05;;;13.25;;
50769;SDS011;36740;48.698;11.472;2024-02-26T01:38:57;18.77;;;12.90;;
50769;SDS011;36740;48.698;11.472;2024-02-26T01:41:43;20.67;;;13.52;;
50769;SDS011;36740;48.698;11.472;2024-02-26T01:44:28;21.48;;;14.07;;
50769;SDS011;36740;48.698;11.472;2024-02-26T01:47:14;22.73;;;13.63;;
50769;SDS011;36740;48.698;11.472;2024-02-26T01:50:00;17.80;;;12.82;;
50769;SDS011;36740;48.698;11.472;2024-02-26T01:52:46;21.00;;;14.05;;
50769;SDS011;36740;48.698;11.472;2024-02-26T01:55:33;20.00;;;13.90;;
50769;SDS011;36740;48.698;11.472;2024-02-26T01:58:19;24.52;;;12.98;;
50769;SDS011;36740;48.698;11.472;2024-02-26T02:01:05;25.02;;;14.25;;
50769;SDS011;36740;48.698;11.472;2024-02-26T02:03:51;21.17;;;13.10;;
50769;SDS011;36740;48.698;11.472;2024-02-26T02:06:37;20.92;;;13.95;;
50769;SDS011;36740;48.698;11.472;2024-02-26T02:09:23;24.73;;;14.40;;
50769;SDS011;36740;48.698;11.472;2024-02-26T02:12:09;19.33;;;13.63;;
50769;SDS011;36740;48.698;11.472;2024-02-26T02:14:56;18.17;;;13.52;;
50769;SDS011;36740;48.698;11.472;2024-02-26T02:17:42;24.85;;;14.90;;
50769;SDS011;36740;48.698;11.472;2024-02-26T02:20:31;24.35;;;14.18;;
50769;SDS011;36740;48.698;11.472;2024-02-26T02:23:20;22.08;;;14.50;;
50769;SDS011;36740;48.698;11.472;2024-02-26T02:26:06;24.63;;;13.82;;
50769;SDS011;36740;48.698;11.472;2024-02-26T02:28:52;24.13;;;12.70;;
50769;SDS011;36740;48.698;11.472;2024-02-26T02:31:38;24.10;;;13.77;;
50769;SDS011;36740;48.698;11.472;2024-02-26T02:34:24;23.98;;;17.42;;
50769;SDS011;36740;48.698;11.472;2024-02-26T02:37:10;23.17;;;15.02;;
50769;SDS011;36740;48.698;11.472;2024-02-26T02:39:56;38.17;;;17.63;;
50769;SDS011;36740;48.698;11.472;2024-02-26T02:42:43;25.45;;;14.63;;
50769;SDS011;36740;48.698;11.472;2024-02-26T02:45:28;28.88;;;17.83;;
50769;SDS011;36740;48.698;11.472;2024-02-26T02:48:14;30.90;;;17.88;;
50769;SDS011;36740;48.698;11.472;2024-02-26T02:51:00;23.73;;;15.73;;
50769;SDS011;36740;48.698;11.472;2024-02-26T02:53:46;24.48;;;15.52;;
50769;SDS011;36740;48.698;11.472;2024-02-26T02:56:31;30.58;;;19.40;;
50769;SDS011;36740;48.698;11.472;2024-02-26T02:59:17;26.38;;;17.15;;
50769;SDS011;36740;48.698;11.472;2024-02-26T03:02:03;25.73;;;17.17;;
50769;SDS011;36740;48.698;11.472;2024-02-26T03:04:50;29.20;;;17.17;;
50769;SDS011;36740;48.698;11.472;2024-02-26T03:07:36;20.85;;;15.82;;
50769;SDS011;36740;48.698;11.472;2024-02-26T03:10:22;24.90;;;15.55;;
50769;SDS011;36740;48.698;11.472;2024-02-26T03:13:07;40.08;;;18.58;;
50769;SDS011;36740;48.698;11.472;2024-02-26T03:15:53;26.92;;;18.00;;
50769;SDS011;36740;48.698;11.472;2024-02-26T03:18:39;25.80;;;17.77;;
50769;SDS011;36740;48.698;11.472;2024-02-26T03:21:28;34.28;;;20.63;;
50769;SDS011;36740;48.698;11.472;2024-02-26T03:24:14;31.25;;;19.13;;
50769;SDS011;36740;48.698;11.472;2024-02-26T03:27:00;27.05;;;20.05;;
50769;SDS011;36740;48.698;11.472;2024-02-26T03:29:45;33.05;;;18.77;;
50769;SDS011;36740;48.698;11.472;2024-02-26T03:32:31;32.42;;;20.95;;
50769;SDS011;36740;48.698;11.472;2024-02-26T03:35:17;49.40;;;21.02;;
50769;SDS011;36740;48.698;11.472;2024-02-26T03:38:03;35.53;;;21.45;;
50769;SDS011;36740;48.698;11.472;2024-02-26T03:40:49;41.78;;;22.08;;
50769;SDS011;36740;48.698;11.472;2024-02-26T03:43:34;38.40;;;22.80;;
50769;SDS011;36740;48.698;11.472;2024-02-26T03:46:20;46.20;;;24.67;;
50769;SDS011;36740;48.698;11.472;2024-02-26T03:49:06;34.28;;;20.85;;
50769;SDS011;36740;48.698;11.472;2024-02-26T03:51:51;35.90;;;21.35;;
50769;SDS011;36740;48.698;11.472;2024-02-26T03:54:37;41.10;;;22.15;;
50769;SDS011;36740;48.698;11.472;2024-02-26T03:57:23;40.47;;;22.45;;
50769;SDS011;36740;48.698;11.472;2024-02-26T04:00:09;38.38;;;23.42;;
50769;SDS011;36740;48.698;11.472;2024-02-26T04:02:55;41.38;;;21.20;;
50769;SDS011;36740;48.698;11.472;2024-02-26T04:05:41;46.53;;;23.08;;
50769;SDS011;36740;48.698;11.472;2024-02-26T04:08:27;31.08;;;20.58;;
50769;SDS011;36740;48.698;11.472;2024-02-26T04:11:13;32.25;;;20.55;;
50769;SDS011;36740;48.698;11.472;2024-02-26T04:14:02;40.55;;;21.88;;
50769;SDS011;36740;48.698;11.472;2024-02-26T04:16:49;33.28;;;21.90;;
50769;SDS011;36740;48.698;11.472;2024-02-26T04:19:37;45.10;;;23.73;;
50769;SDS011;36740;48.698;11.472;2024-02-26T04:22:23;35.42;;;23.98;;
50769;SDS011;36740;48.698;11.472;2024-02-26T04:25:09;44.58;;;24.95;;
50769;SDS011;36740;48.698;11.472;2024-02-26T04:27:55;39.03;;;26.85;;
50769;SDS011;36740;48.698;11.472;2024-02-26T04:30:41;36.83;;;26.65;;
50769;SDS011;36740;48.698;11.472;2024-02-26T04:33:27;41.75;;;26.25;;
50769;SDS011;36740;48.698;11.472;2024-02-26T04:36:13;35.28;;;23.33;;
50769;SDS011;36740;48.698;11.472;2024-02-26T04:39:00;33.15;;;23.25;;
50769;SDS011;36740;48.698;11.472;2024-02-26T04:41:46;40.08;;;24.20;;
50769;SDS011;36740;48.698;11.472;2024-02-26T04:44:33;47.83;;;24.90;;
50769;SDS011;36740;48.698;11.472;2024-02-26T04:47:18;42.85;;;22.98;;
50769;SDS011;36740;48.698;11.472;2024-02-26T04:50:04;48.97;;;29.80;;
50769;SDS011;36740;48.698;11.472;2024-02-26T04:52:50;41.35;;;25.52;;
50769;SDS011;36740;48.698;11.472;2024-02-26T04:55:36;38.63;;;25.80;;
50769;SDS011;36740;48.698;11.472;2024-02-26T04:58:22;43.83;;;27.02;;
50769;SDS011;36740;48.698;11.472;2024-02-26T05:01:08;39.38;;;27.77;;
50769;SDS011;36740;48.698;11.472;2024-02-26T05:03:55;38.63;;;25.02;;
50769;SDS011;36740;48.698;11.472;2024-02-26T05:06:41;45.38;;;26.65;;
50769;SDS011;36740;48.698;11.472;2024-02-26T05:09:26;42.70;;;23.23;;
50769;SDS011;36740;48.698;11.472;2024-02-26T05:12:12;41.38;;;25.15;;
50769;SDS011;36740;48.698;11.472;2024-02-26T05:14:58;47.13;;;26.80;;
50769;SDS011;36740;48.698;11.472;2024-02-26T05:17:44;41.90;;;26.38;;
50769;SDS011;36740;48.698;11.472;2024-02-26T05:20:30;38.72;;;24.08;;
50769;SDS011;36740;48.698;11.472;2024-02-26T05:23:17;44.03;;;24.30;;
50769;SDS011;36740;48.698;11.472;2024-02-26T05:26:05;30.60;;;23.92;;
50769;SDS011;36740;48.698;11.472;2024-02-26T05:28:51;41.53;;;24.85;;
50769;SDS011;36740;48.698;11.472;2024-02-26T05:31:37;42.10;;;24.67;;
50769;SDS011;36740;48.698;11.472;2024-02-26T05:34:22;48.50;;;24.38;;
50769;SDS011;36740;48.698;11.472;2024-02-26T05:37:08;41.85;;;25.27;;
50769;SDS011;36740;48.698;11.472;2024-02-26T05:39:54;40.58;;;26.38;;
50769;SDS011;36740;48.698;11.472;2024-02-26T05:42:40;39.65;;;27.63;;
50769;SDS011;36740;48.698;11.472;2024-02-26T05:45:26;40.35;;;26.00;;
50769;SDS011;36740;48.698;11.472;2024-02-26T05:48:11;42.45;;;25.95;;
50769;SDS011;36740;48.698;11.472;2024-02-26T05:50:57;41.03;;;23.98;;
50769;SDS011;36740;48.698;11.472;2024-02-26T05:53:44;41.17;;;26.70;;
50769;SDS011;36740;48.698;11.472;2024-02-26T05:56:32;35.38;;;24.50;;
50769;SDS011;36740;48.698;11.472;2024-02-26T05:59:18;42.53;;;23.88;;
50769;SDS011;36740;48.698;11.472;2024-02-26T06:02:04;44.13;;;27.33;;
50769;SDS011;36740;48.698;11.472;2024-02-26T06:04:50;38.22;;;25.90;;
50769;SDS011;36740;48.698;11.472;2024-02-26T06:07:36;36.72;;;25.42;;
50769;SDS011;36740;48.698;11.472;2024-02-26T06:10:26;37.17;;;24.63;;
50769;SDS011;36740;48.698;11.472;2024-02-26T06:13:12;32.55;;;24.30;;
50769;SDS011;36740;48.698;11.472;2024-02-26T06:15:57;40.35;;;23.83;;
50769;SDS011;36740;48.698;11.472;2024-02-26T06:18:43;43.20;;;23.98;;
50769;SDS011;36740;48.698;11.472;2024-02-26T06:21:29;34.47;;;20.50;;
50769;SDS011;36740;48.698;11.472;2024-02-26T06:24:15;47.40;;;26.27;;
50769;SDS011;36740;48.698;11.472;2024-02-26T06:27:01;36.35;;;23.02;;
50769;SDS011;36740;48.698;11.472;2024-02-26T06:29:46;36.70;;;25.98;;
50769;SDS011;36740;48.698;11.472;2024-02-26T06:32:32;38.67;;;23.38;;
50769;SDS011;36740;48.698;11.472;2024-02-26T06:35:18;36.00;;;25.77;;
50769;SDS011;36740;48.698;11.472;2024-02-26T06:38:04;43.80;;;22.98;;
50769;SDS011;36740;48.698;11.472;2024-02-26T06:40:50;36.90;;;23.48;;
50769;SDS011;36740;48.698;11.472;2024-02-26T06:43:35;33.15;;;20.17;;
50769;SDS011;36740;48.698;11.472;2024-02-26T06:46:22;45.17;;;28.17;;
50769;SDS011;36740;48.698;11.472;2024-02-26T06:49:08;36.13;;;25.45;;
50769;SDS011;36740;48.698;11.472;2024-02-26T06:51:54;36.95;;;24.35;;
50769;SDS011;36740;48.698;11.472;2024-02-26T06:54:40;45.35;;;26.60;;
50769;SDS011;36740;48.698;11.472;2024-02-26T06:57:26;44.15;;;27.48;;
50769;SDS011;36740;48.698;11.472;2024-02-26T07:00:12;38.80;;;25.08;;
50769;SDS011;36740;48.698;11.472;2024-02-26T07:03:01;44.45;;;27.88;;
50769;SDS011;36740;48.698;11.472;2024-02-26T07:05:47;44.67;;;26.55;;
50769;SDS011;36740;48.698;11.472;2024-02-26T07:08:33;40.88;;;26.00;;
50769;SDS011;36740;48.698;11.472;2024-02-26T07:11:18;39.33;;;25.08;;
50769;SDS011;36740;48.698;11.472;2024-02-26T07:14:05;39.15;;;25.52;;
50769;SDS011;36740;48.698;11.472;2024-02-26T07:16:51;41.47;;;24.58;;
50769;SDS011;36740;48.698;11.472;2024-02-26T07:19:36;39.85;;;25.08;;
50769;SDS011;36740;48.698;11.472;2024-02-26T07:22:22;39.78;;;25.92;;
50769;SDS011;36740;48.698;11.472;2024-02-26T07:25:08;36.90;;;26.23;;
50769;SDS011;36740;48.698;11.472;2024-02-26T07:27:57;34.33;;;25.38;;
50769;SDS011;36740;48.698;11.472;2024-02-26T07:30:43;33.22;;;24.05;;
50769;SDS011;36740;48.698;11.472;2024-02-26T07:33:29;35.33;;;23.90;;
50769;SDS011;36740;48.698;11.472;2024-02-26T07:36:15;36.38;;;24.95;;
50769;SDS011;36740;48.698;11.472;2024-02-26T07:39:00;32.60;;;22.73;;
50769;SDS011;36740;48.698;11.472;2024-02-26T07:41:46;33.97;;;21.52;;
50769;SDS011;36740;48.698;11.472;2024-02-26T07:44:35;37.55;;;21.45;;
50769;SDS011;36740;48.698;11.472;2024-02-26T07:47:20;34.00;;;21.85;;
50769;SDS011;36740;48.698;11.472;2024-02-26T07:50:07;27.05;;;20.70;;
50769;SDS011;36740;48.698;11.472;2024-02-26T07:52:54;30.40;;;20.33;;
50769;SDS011;36740;48.698;11.472;2024-02-26T07:55:40;38.13;;;22.17;;
50769;SDS011;36740;48.698;11.472;2024-02-26T07:58:25;30.52;;;19.60;;
50769;SDS011;36740;48.698;11.472;2024-02-26T08:01:14;27.70;;;19.60;;
50769;SDS011;36740;48.698;11.472;2024-02-26T08:04:00;39.17;;;19.15;;
50769;SDS011;36740;48.698;11.472;2024-02-26T08:06:46;28.17;;;20.17;;
50769;SDS011;36740;48.698;11.472;2024-02-26T08:09:32;31.15;;;19.67;;
50769;SDS011;36740;48.698;11.472;2024-02-26T08:12:17;29.60;;;18.48;;
50769;SDS011;36740;48.698;11.472;2024-02-26T08:15:04;33.75;;;19.35;;
50769;SDS011;36740;48.698;11.472;2024-02-26T08:17:50;26.35;;;20.25;;
50769;SDS011;36740;48.698;11.472;2024-02-26T08:20:36;26.83;;;15.60;;
50769;SDS011;36740;48.698;11.472;2024-02-26T08:23:22;22.67;;;16.58;;
50769;SDS011;36740;48.698;11.472;2024-02-26T08:26:09;35.67;;;17.30;;
50769;SDS011;36740;48.698;11.472;2024-02-26T08:28:56;25.95;;;16.35;;
50769;SDS011;36740;48.698;11.472;2024-02-26T08:31:43;30.50;;;18.52;;
50769;SDS011;36740;48.698;11.472;2024-02-26T08:34:29;28.42;;;19.05;;
50769;SDS011;36740;48.698;11.472;2024-02-26T08:37:15;24.13;;;16.73;;
50769;SDS011;36740;48.698;11.472;2024-02-26T08:40:01;20.85;;;13.93;;
50769;SDS011;36740;48.698;11.472;2024-02-26T08:42:46;26.42;;;15.18;;
50769;SDS011;36740;48.698;11.472;2024-02-26T08:45:32;22.33;;;17.20;;
50769;SDS011;36740;48.698;11.472;2024-02-26T08:48:18;29.58;;;17.35;;
50769;SDS011;36740;48.698;11.472;2024-02-26T08:51:07;21.80;;;15.38;;
50769;SDS011;36740;48.698;11.472;2024-02-26T08:53:53;26.45;;;16.00;;
50769;SDS011;36740;48.698;11.472;2024-02-26T08:56:39;23.38;;;14.50;;
50769;SDS011;36740;48.698;11.472;2024-02-26T08:59:25;23.45;;;15.73;;
50769;SDS011;36740;48.698;11.472;2024-02-26T09:02:11;20.23;;;13.25;;
50769;SDS011;36740;48.698;11.472;2024-02-26T09:04:57;20.67;;;14.45;;
50769;SDS011;36740;48.698;11.472;2024-02-26T09:07:42;26.35;;;15.43;;
50769;SDS011;36740;48.698;11.472;2024-02-26T09:10:29;18.42;;;12.10;;
50769;SDS011;36740;48.698;11.472;2024-02-26T09:13:15;21.63;;;14.07;;
50769;SDS011;36740;48.698;11.472;2024-02-26T09:16:00;21.08;;;15.50;;
50769;SDS011;36740;48.698;11.472;2024-02-26T09:18:46;24.40;;;14.57;;
50769;SDS011;36740;48.698;11.472;2024-02-26T09:21:32;20.48;;;11.23;;
50769;SDS011;36740;48.698;11.472;2024-02-26T09:24:18;21.63;;;11.88;;
50769;SDS011;36740;48.698;11.472;2024-02-26T09:27:04;22.35;;;13.07;;
50769;SDS011;36740;48.698;11.472;2024-02-26T09:29:50;20.27;;;12.27;;
50769;SDS011;36740;48.698;11.472;2024-02-26T09:32:36;18.33;;;12.55;;
50769;SDS011;36740;48.698;11.472;2024-02-26T09:35:23;21.15;;;12.98;;
50769;SDS011;36740;48.698;11.472;2024-02-26T09:38:09;17.67;;;11.50;;
50769;SDS011;36740;48.698;11.472;2024-02-26T09:40:56;17.27;;;10.27;;
50769;SDS011;36740;48.698;11.472;2024-02-26T09:43:46;18.15;;;12.98;;
50769;SDS011;36740;48.698;11.472;2024-02-26T09:46:34;16.42;;;11.63;;
50769;SDS011;36740;48.698;11.472;2024-02-26T09:49:20;18.25;;;11.93;;
50769;SDS011;36740;48.698;11.472;2024-02-26T09:52:09;16.90;;;12.30;;
50769;SDS011;36740;48.698;11.472;2024-02-26T09:54:55;19.95;;;12.25;;
50769;SDS011;36740;48.698;11.472;2024-02-26T09:57:42;21.27;;;13.20;;
50769;SDS011;36740;48.698;11.472;2024-02-26T10:00:31;17.02;;;14.07;;
50769;SDS011;36740;48.698;11.472;2024-02-26T10:03:21;20.50;;;14.32;;
50769;SDS011;36740;48.698;11.472;2024-02-26T10:06:14;19.65;;;14.00;;
50769;SDS011;36740;48.698;11.472;2024-02-26T10:09:00;21.02;;;11.90;;
50769;SDS011;36740;48.698;11.472;2024-02-26T10:11:49;24.55;;;12.95;;
50769;SDS011;36740;48.698;11.472;2024-02-26T10:14:35;19.08;;;13.18;;
50769;SDS011;36740;48.698;11.472;2024-02-26T10:17:22;23.80;;;15.13;;
50769;SDS011;36740;48.698;11.472;2024-02-26T10:20:14;23.05;;;15.82;;
50769;SDS011;36740;48.698;11.472;2024-02-26T10:23:04;19.63;;;12.55;;
50769;SDS011;36740;48.698;11.472;2024-02-26T10:25:54;19.60;;;13.07;;
50769;SDS011;36740;48.698;11.472;2024-02-26T10:28:44;23.05;;;15.80;;
50769;SDS011;36740;48.698;11.472;2024-02-26T10:31:31;17.15;;;11.95;;
50769;SDS011;36740;48.698;11.472;2024-02-26T10:34:17;21.48;;;11.45;;
50769;SDS011;36740;48.698;11.472;2024-02-26T10:37:05;22.73;;;11.75;;
50769;SDS011;36740;48.698;11.472;2024-02-26T10:39:51;23.23;;;12.85;;
50769;SDS011;36740;48.698;11.472;2024-02-26T10:42:36;18.48;;;11.05;;
50769;SDS011;36740;48.698;11.472;2024-02-26T10:45:23;23.20;;;12.60;;
50769;SDS011;36740;48.698;11.472;2024-02-26T10:48:12;17.08;;;11.20;;
50769;SDS011;36740;48.698;11.472;2024-02-26T10:51:06;28.45;;;13.10;;
50769;SDS011;36740;48.698;11.472;2024-02-26T10:53:57;16.98;;;12.27;;
50769;SDS011;36740;48.698;11.472;2024-02-26T10:56:46;17.75;;;11.02;;
50769;SDS011;36740;48.698;11.472;2024-02-26T10:59:34;23.15;;;11.70;;
50769;SDS011;36740;48.698;11.472;2024-02-26T11:02:21;14.45;;;9.43;;
50769;SDS011;36740;48.698;11.472;2024-02-26T11:05:07;17.25;;;11.40;;
50769;SDS011;36740;48.698;11.472;2024-02-26T11:07:55;16.02;;;10.68;;
50769;SDS011;36740;48.698;11.472;2024-02-26T11:10:42;18.70;;;11.85;;
50769;SDS011;36740;48.698;11.472;2024-02-26T11:13:32;12.53;;;9.40;;
50769;SDS011;36740;48.698;11.472;2024-02-26T11:16:22;23.55;;;11.27;;
50769;SDS011;36740;48.698;11.472;2024-02-26T11:19:09;21.70;;;11.45;;
50769;SDS011;36740;48.698;11.472;2024-02-26T11:21:56;12.38;;;8.25;;
50769;SDS011;36740;48.698;11.472;2024-02-26T11:24:42;12.52;;;8.15;;
50769;SDS011;36740;48.698;11.472;2024-02-26T11:27:29;11.38;;;8.35;;
50769;SDS011;36740;48.698;11.472;2024-02-26T11:30:18;13.02;;;8.95;;
50769;SDS011;36740;48.698;11.472;2024-02-26T11:33:08;12.55;;;7.97;;
50769;SDS011;36740;48.698;11.472;2024-02-26T11:35:55;9.90;;;7.03;;
50769;SDS011;36740;48.698;11.472;2024-02-26T11:38:41;16.65;;;7.47;;
50769;SDS011;36740;48.698;11.472;2024-02-26T11:41:27;11.27;;;7.55;;
50769;SDS011;36740;48.698;11.472;2024-02-26T11:44:13;15.35;;;8.55;;
50769;SDS011;36740;48.698;11.472;2024-02-26T11:46:59;13.75;;;8.80;;
50769;SDS011;36740;48.698;11.472;2024-02-26T11:49:46;9.52;;;6.75;;
50769;SDS011;36740;48.698;11.472;2024-02-26T11:52:32;8.57;;;6.28;;
50769;SDS011;36740;48.698;11.472;2024-02-26T11:55:31;13.00;;;6.60;;
50769;SDS011;36740;48.698;11.472;2024-02-26T11:58:17;9.35;;;5.75;;
50769;SDS011;36740;48.698;11.472;2024-02-26T12:01:03;13.38;;;5.55;;
50769;SDS011;36740;48.698;11.472;2024-02-26T12:03:49;13.48;;;5.43;;
50769;SDS011;36740;48.698;11.472;2024-02-26T12:06:46;10.40;;;5.88;;
50769;SDS011;36740;48.698;11.472;2024-02-26T12:09:39;8.55;;;5.18;;
50769;SDS011;36740;48.698;11.472;2024-02-26T12:12:26;9.15;;;3.38;;
50769;SDS011;36740;48.698;11.472;2024-02-26T12:15:14;6.18;;;4.00;;
50769;SDS011;36740;48.698;11.472;2024-02-26T12:18:01;8.20;;;5.05;;
50769;SDS011;36740;48.698;11.472;2024-02-26T12:21:00;7.95;;;4.55;;
50769;SDS011;36740;48.698;11.472;2024-02-26T12:23:47;10.48;;;5.72;;
50769;SDS011;36740;48.698;11.472;2024-02-26T12:26:33;6.80;;;3.80;;
50769;SDS011;36740;48.698;11.472;2024-02-26T12:29:19;10.40;;;5.75;;
50769;SDS011;36740;48.698;11.472;2024-02-26T12:32:05;9.35;;;5.32;;
50769;SDS011;36740;48.698;11.472;2024-02-26T12:34:58;6.70;;;4.15;;
50769;SDS011;36740;48.698;11.472;2024-02-26T12:37:52;9.88;;;6.18;;
50769;SDS011;36740;48.698;11.472;2024-02-26T12:40:39;10.05;;;6.07;;
50769;SDS011;36740;48.698;11.472;2024-02-26T12:43:25;16.45;;;5.20;;
50769;SDS011;36740;48.698;11.472;2024-02-26T12:45:54;4.97;;;3.65;;
50769;SDS011;36740;48.698;11.472;2024-02-26T12:48:20;8.68;;;3.95;;
50769;SDS011;36740;48.698;11.472;2024-02-26T12:50:46;6.72;;;4.32;;
50769;SDS011;36740;48.698;11.472;2024-02-26T12:53:14;6.50;;;3.55;;
50769;SDS011;36740;48.698;11.472;2024-02-26T12:55:42;7.63;;;4.25;;
50769;SDS011;36740;48.698;11.472;2024-02-26T12:58:09;3.40;;;3.08;;
50769;SDS011;36740;48.698;11.472;2024-02-26T13:00:35;7.22;;;3.38;;
50769;SDS011;36740;48.698;11.472;2024-02-26T13:03:04;6.35;;;4.30;;
50769;SDS011;36740;48.698;11.472;2024-02-26T13:05:30;5.82;;;3.78;;
50769;SDS011;36740;48.698;11.472;2024-02-26T13:07:56;6.07;;;3.85;;
50769;SDS011;36740;48.698;11.472;2024-02-26T13:10:21;10.57;;;4.93;;
50769;SDS011;36740;48.698;11.472;2024-02-26T13:12:47;5.47;;;3.60;;
50769;SDS011;36740;48.698;11.472;2024-02-26T13:15:18;11.43;;;4.20;;
50769;SDS011;36740;48.698;11.472;2024-02-26T13:17:46;6.45;;;3.97;;
50769;SDS011;36740;48.698;11.472;2024-02-26T13:20:12;6.45;;;3.33;;
50769;SDS011;36740;48.698;11.472;2024-02-26T13:22:40;8.68;;;4.65;;
50769;SDS011;36740;48.698;11.472;2024-02-26T13:25:05;6.93;;;5.03;;
50769;SDS011;36740;48.698;11.472;2024-02-26T13:27:34;6.10;;;3.42;;
50769;SDS011;36740;48.698;11.472;2024-02-26T13:32:36;8.82;;;4.03;;
50769;SDS011;36740;48.698;11.472;2024-02-26T13:35:09;6.65;;;4.25;;
50769;SDS011;36740;48.698;11.472;2024-02-26T13:37:36;5.55;;;3.90;;
50769;SDS011;36740;48.698;11.472;2024-02-26T13:40:05;11.20;;;4.53;;
50769;SDS011;36740;48.698;11.472;2024-02-26T13:42:35;4.43;;;3.40;;
50769;SDS011;36740;48.698;11.472;2024-02-26T13:45:02;8.15;;;4.00;;
50769;SDS011;36740;48.698;11.472;2024-02-26T13:47:30;6.05;;;3.30;;
50769;SDS011;36740;48.698;11.472;2024-02-26T13:49:56;5.60;;;3.60;;
50769;SDS011;36740;48.698;11.472;2024-02-26T13:52:22;5.38;;;3.22;;
50769;SDS011;36740;48.698;11.472;2024-02-26T13:54:47;5.25;;;3.58;;
50769;SDS011;36740;48.698;11.472;2024-02-26T13:57:13;8.05;;;4.85;;
50769;SDS011;36740;48.698;11.472;2024-02-26T13:59:38;3.85;;;2.95;;
50769;SDS011;36740;48.698;11.472;2024-02-26T14:02:08;5.80;;;3.72;;
50769;SDS011;36740;48.698;11.472;2024-02-26T14:04:34;6.50;;;4.03;;
50769;SDS011;36740;48.698;11.472;2024-02-26T14:06:59;5.93;;;3.83;;
50769;SDS011;36740;48.698;11.472;2024-02-26T14:09:25;4.82;;;3.03;;
50769;SDS011;36740;48.698;11.472;2024-02-26T14:11:50;8.02;;;4.38;;
50769;SDS011;36740;48.698;11.472;2024-02-26T14:14:16;5.70;;;2.85;;
50769;SDS011;36740;48.698;11.472;2024-02-26T14:16:41;7.05;;;3.47;;
50769;SDS011;36740;48.698;11.472;2024-02-26T14:19:07;7.55;;;3.97;;
50769;SDS011;36740;48.698;11.472;2024-02-26T14:21:32;9.15;;;3.75;;
50769;SDS011;36740;48.698;11.472;2024-02-26T14:23:58;4.25;;;2.78;;
50769;SDS011;36740;48.698;11.472;2024-02-26T14:26:26;8.00;;;3.17;;
50769;SDS011;36740;48.698;11.472;2024-02-26T14:29:25;5.43;;;3.10;;
50769;SDS011;36740;48.698;11.472;2024-02-26T14:32:06;4.57;;;3.63;;
50769;SDS011;36740;48.698;11.472;2024-02-26T14:34:32;13.55;;;3.30;;
50769;SDS011;36740;48.698;11.472;2024-02-26T14:36:58;4.45;;;3.35;;
50769;SDS011;36740;48.698;11.472;2024-02-26T14:39:23;4.40;;;2.55;;
50769;SDS011;36740;48.698;11.472;2024-02-26T14:41:49;4.85;;;2.85;;
50769;SDS011;36740;48.698;11.472;2024-02-26T14:44:15;3.20;;;2.60;;
50769;SDS011;36740;48.698;11.472;2024-02-26T14:49:33;4.70;;;3.00;;
50769;SDS011;36740;48.698;11.472;2024-02-26T14:52:01;4.85;;;2.28;;
50769;SDS011;36740;48.698;11.472;2024-02-26T14:57:25;5.72;;;2.88;;
50769;SDS011;36740;48.698;11.472;2024-02-26T14:59:53;4.90;;;2.35;;
50769;SDS011;36740;48.698;11.472;2024-02-26T15:08:32;5.88;;;3.30;;
50769;SDS011;36740;48.698;11.472;2024-02-26T15:11:00;5.03;;;2.88;;
50769;SDS011;36740;48.698;11.472;2024-02-26T15:13:28;7.70;;;3.55;;
50769;SDS011;36740;48.698;11.472;2024-02-26T15:16:22;5.80;;;2.45;;
50769;SDS011;36740;48.698;11.472;2024-02-26T15:21:54;5.05;;;2.95;;
50769;SDS011;36740;48.698;11.472;2024-02-26T15:24:32;6.70;;;2.65;;
50769;SDS011;36740;48.698;11.472;2024-02-26T15:27:07;5.63;;;3.35;;
50769;SDS011;36740;48.698;11.472;2024-02-26T15:33:15;8.20;;;3.47;;
50769;SDS011;36740;48.698;11.472;2024-02-26T15:36:07;7.07;;;4.25;;
50769;SDS011;36740;48.698;11.472;2024-02-26T15:38:55;4.93;;;2.97;;
50769;SDS011;36740;48.698;11.472;2024-02-26T15:41:48;6.03;;;3.70;;
50769;SDS011;36740;48.698;11.472;2024-02-26T15:51:32;6.00;;;4.20;;
50769;SDS011;36740;48.698;11.472;2024-02-26T15:54:04;6.25;;;4.07;;
50769;SDS011;36740;48.698;11.472;2024-02-26T15:56:35;6.07;;;3.75;;
50769;SDS011;36740;48.698;11.472;2024-02-26T15:59:10;6.30;;;3.88;;
50769;SDS011;36740;48.698;11.472;2024-02-26T16:01:36;4.50;;;3.20;;
50769;SDS011;36740;48.698;11.472;2024-02-26T16:04:20;5.80;;;2.55;;
50769;SDS011;36740;48.698;11.472;2024-02-26T16:06:58;2.42;;;2.10;;
50769;SDS011;36740;48.698;11.472;2024-02-26T16:09:35;6.50;;;2.65;;
50769;SDS011;36740;48.698;11.472;2024-02-26T16:12:19;6.45;;;3.58;;
50769;SDS011;36740;48.698;11.472;2024-02-26T16:15:13;4.50;;;2.60;;
50769;SDS011;36740;48.698;11.472;2024-02-26T16:17:50;5.15;;;3.40;;